Terminal Aerodrome Forecast
Issued by NWS

Home | Current Version | Previous Version | Text Only | Print | Product List | Glossary On
Versions: 1 2 3 4 5 6 7 8 9 10 11 12 13 14 15 16 17 18 19 20 21 22 23 24 25 26 27 28 29 30 31 32 33 34 35 36 37 38 39 40 41 42 43 44
000
FTAK31 PANC 271432 AAA
TAFAEN
TAF AMD
PAEN 271432Z 2715/2812 25005KT 6SM BR OVC003
      TEMPO 2715/2718 1/2SM FG OVC002
     FM271800 VRB04KT P6SM SCT007 OVC015
     FM272100 22008KT P6SM SCT015 BKN070=

USA.gov is the U.S. government's official web portal to all federal, state and local government web resources and services.